KBTP/BTP METAR and TAF weather

Enter ICAO airport designator
Station Type Date Time Source
KBTP METAR 2020/09/20 13:56 UTC NOAA

KBTP 201356Z AUTO 06005KT 10SM CLR 10/03 A3050 RMK AO2 SLP341 T01000033 PNO $


Station Type Date Time Source
KBTP Decoded METAR 2020/09/20 13:56 UTC NOAA

Butler, Butler County Airport/K W Scholter Field, PA, United States (KBTP) 40-47N 079-57W
Sep 20, 2020 - 09:56 AM EDT / 2020.09.20 1356 UTC
Wind: from the ENE (060 degrees) at 6 MPH (5 KT):0
Visibility: 10 mile(s):0
Sky conditions: clear
Temperature: 50.0 F (10.0 C)
Dew Point: 37.9 F (3.3 C)
Relative Humidity: 63%
Pressure (altimeter): 30.5 in. Hg (1032 hPa)
ob: KBTP 201356Z AUTO 06005KT 10SM CLR 10/03 A3050 RMK AO2 SLP341 T01000033 PNO
cycle: 14

Station Type Date Time Source
KBTP TAF UTC NOAA

Error!

Example: see airport list